Stavelot, Belgium
Current Conditions -  °F | °C
As of 1:25 AM on Tuesday 25 Nov 2014 (Local Time) from EBLB Reporting Station
Clear Clear  
Wind Chill: 30°   Ceiling: Unl
Heat Index: 30°   Visibility: 1.6mi
Dew Point: 28°   Wind: 3mph
Humidity: 93%   Direction: 100°E
Pressure: 30.27"   Gusts: NA
Location:  50.4°N, 5.93°E
Report Text: EBLB 250025Z AUTO 10003KT 2600 NCD M01/M02 Q1025 YLO
Loading
Personal Weather Stations






























Interactive Weather Map New forecast layout! Learn more

10-Day Weather Forecast

Advertisements
Track Severe Weather on mobile